Terminal Aerodrome Forecast
Issued by NWS

Home | Current Version | Previous Version | Text Only | Print | Product List | Glossary On
Versions: 1 2 3 4 5 6 7 8 9 10 11 12 13 14
000
FTUS45 KABQ 170500
TAFGUP
TAF
KGUP 170526Z 1706/1806 24005KT P6SM SCT100
     FM170700 20005KT P6SM SCT050 OVC100
     FM171100 12005KT P6SM SCT025 OVC040
     FM172200 09005KT P6SM VCSH BKN060
     FM180100 09005KT P6SM BKN080=

USA.gov is the U.S. government's official web portal to all federal, state and local government web resources and services.